Time;durP1;ratioP1;P1;durP2;ratioP2;P2;SDS_P1;SDS_P2;PMS_P1;PMS_P2;Temp;Humidity;BMP_temperature;BMP_pressure;BME280_temperature;BME280_humidity;BME280_pressure;Samples;Min_cycle;Max_cycle;Signal;HPM_P1;HPM_P2
2024/01/22 00:01:55;;;;;;;39.53;28.10;;;;;;;-2.86;64.01;96599.34;5023317;28;20242;-74
2024/01/22 00:04:20;;;;;;;37.90;27.97;;;;;;;-2.74;63.36;96600.81;5029370;28;20230;-75
2024/01/22 00:06:46;;;;;;;36.97;26.63;;;;;;;-2.76;64.06;96603.41;5023333;28;20230;-78
2024/01/22 00:09:11;;;;;;;38.40;27.93;;;;;;;-2.91;64.85;96604.56;5023955;28;20225;-74
2024/01/22 00:11:37;;;;;;;39.60;27.97;;;;;;;-2.67;64.51;96603.22;5023941;28;20248;-75
2024/01/22 00:14:02;;;;;;;36.27;26.73;;;;;;;-2.51;64.10;96608.03;5021802;28;20310;-77
2024/01/22 00:16:28;;;;;;;34.17;26.43;;;;;;;-2.41;63.52;96601.78;5025624;28;20225;-75
2024/01/22 00:18:53;;;;;;;37.40;26.50;;;;;;;-2.56;63.78;96610.72;5019862;28;20285;-73
2024/01/22 00:21:19;;;;;;;34.90;26.77;;;;;;;-2.28;61.80;96613.50;5023938;28;20233;-77
2024/01/22 00:23:45;;;;;;;36.20;27.33;;;;;;;-2.33;62.80;96617.91;5025808;28;20196;-79
2024/01/22 00:26:14;;;;;;;35.90;26.43;;;;;;;-2.56;62.84;96609.88;5024463;28;20248;-78
2024/01/22 00:28:41;;;;;;;38.50;27.43;;;;;;;-2.90;63.82;96610.56;5023672;28;20222;-73
2024/01/22 00:31:07;;;;;;;41.03;28.47;;;;;;;-2.91;64.44;96614.03;5027211;28;20218;-75
2024/01/22 00:33:32;;;;;;;38.80;28.33;;;;;;;-2.88;65.12;96611.41;5025344;28;20232;-76
2024/01/22 00:35:58;;;;;;;36.67;26.87;;;;;;;-2.60;63.28;96616.78;5021468;28;20198;-79
2024/01/22 00:38:23;;;;;;;37.10;26.37;;;;;;;-2.65;63.98;96613.47;5024650;28;20202;-79
2024/01/22 00:40:48;;;;;;;34.37;25.93;;;;;;;-2.59;64.33;96618.50;5020509;28;20226;-76
2024/01/22 00:43:14;;;;;;;37.33;26.23;;;;;;;-2.55;63.75;96621.84;5017958;28;20258;-78
2024/01/22 00:45:39;;;;;;;37.20;26.93;;;;;;;-2.46;63.55;96616.50;5022948;28;20314;-76
2024/01/22 00:48:06;;;;;;;35.73;25.47;;;;;;;-2.46;63.48;96611.34;5023519;28;20222;-77
2024/01/22 00:50:31;;;;;;;34.97;24.80;;;;;;;-2.49;63.10;96607.09;5028316;28;20220;-72
2024/01/22 00:52:56;;;;;;;42.77;28.73;;;;;;;-2.37;62.67;96598.28;5021626;28;20230;-79
2024/01/22 00:55:22;;;;;;;39.83;28.70;;;;;;;-2.27;62.25;96597.19;5028322;28;20230;-76
2024/01/22 00:57:48;;;;;;;43.23;29.47;;;;;;;-2.33;62.45;96601.63;5028733;28;20234;-73
2024/01/22 01:00:15;;;;;;;39.63;27.33;;;;;;;-2.18;62.22;96603.84;5028071;28;20300;-75
2024/01/22 01:02:41;;;;;;;37.70;27.93;;;;;;;-2.29;62.26;96593.78;5027127;28;20236;-77
2024/01/22 01:05:07;;;;;;;45.63;31.03;;;;;;;-2.27;62.41;96597.19;5028816;28;20222;-73
2024/01/22 01:07:34;;;;;;;41.73;30.53;;;;;;;-2.29;62.53;96592.94;5029447;28;20226;-79
2024/01/22 01:10:00;;;;;;;43.17;31.00;;;;;;;-2.29;62.14;96598.09;5021834;28;20697;-79
2024/01/22 01:12:26;;;;;;;44.10;29.63;;;;;;;-2.50;62.82;96596.84;5027315;28;20229;-75
2024/01/22 01:14:51;;;;;;;42.80;30.77;;;;;;;-2.56;62.91;96600.41;5025638;28;20182;-73
2024/01/22 01:17:16;;;;;;;43.47;30.50;;;;;;;-2.52;62.74;96589.16;5027741;28;20193;-73
2024/01/22 01:19:42;;;;;;;42.73;30.10;;;;;;;-2.36;62.71;96589.66;5027578;28;20277;-74
2024/01/22 01:22:07;;;;;;;41.13;29.83;;;;;;;-2.37;62.51;96582.81;5024199;28;20231;-75
2024/01/22 01:24:33;;;;;;;48.10;32.50;;;;;;;-2.38;62.57;96586.25;5025788;28;20317;-74
2024/01/22 01:26:58;;;;;;;41.77;30.70;;;;;;;-2.34;62.05;96585.31;5026447;28;20199;-73
2024/01/22 01:29:24;;;;;;;42.63;30.40;;;;;;;-2.46;61.97;96585.56;5031227;28;20182;-74
2024/01/22 01:31:49;;;;;;;39.90;28.60;;;;;;;-2.66;62.11;96580.88;5030219;28;20280;-74
2024/01/22 01:34:15;;;;;;;36.43;26.87;;;;;;;-3.01;62.40;96579.91;5026219;28;20227;-74
2024/01/22 01:36:40;;;;;;;39.63;26.37;;;;;;;-2.71;62.09;96591.28;5022814;28;20309;-75
2024/01/22 01:39:05;;;;;;;37.23;26.43;;;;;;;-2.63;61.58;96588.53;5024014;28;20322;-75
2024/01/22 01:41:31;;;;;;;33.50;24.33;;;;;;;-2.60;60.58;96582.47;5027697;28;20187;-74
2024/01/22 01:43:57;;;;;;;34.03;24.40;;;;;;;-2.63;60.42;96579.97;5030182;28;20246;-74
2024/01/22 01:46:22;;;;;;;32.60;24.07;;;;;;;-2.55;60.75;96586.63;5028820;28;20265;-78
2024/01/22 01:48:49;;;;;;;28.43;20.63;;;;;;;-2.54;59.59;96579.75;5027192;28;20237;-73
2024/01/22 01:51:15;;;;;;;25.60;20.13;;;;;;;-2.59;59.24;96573.84;5022807;28;20219;-78
2024/01/22 01:53:42;;;;;;;27.53;19.33;;;;;;;-2.46;58.59;96583.00;5028891;28;20364;-77
2024/01/22 01:56:07;;;;;;;24.40;18.93;;;;;;;-2.92;59.44;96577.13;5023582;28;20223;-79
2024/01/22 01:58:33;;;;;;;28.43;19.33;;;;;;;-2.78;59.02;96586.28;5024705;28;20234;-76
2024/01/22 02:01:01;;;;;;;23.97;18.93;;;;;;;-3.03;59.29;96571.34;5028102;28;20225;-78
2024/01/22 02:03:26;;;;;;;28.57;18.73;;;;;;;-2.92;59.22;96571.13;5013998;28;20231;-78
2024/01/22 02:05:52;;;;;;;27.60;19.87;;;;;;;-2.93;59.22;96572.88;5025807;28;20194;-80
2024/01/22 02:08:17;;;;;;;26.10;19.10;;;;;;;-3.00;59.45;96576.44;5027254;28;20186;-81
2024/01/22 02:10:49;;;;;;;25.43;19.03;;;;;;;-3.01;59.10;96571.34;5031449;28;20218;-79
2024/01/22 02:13:14;;;;;;;27.80;19.17;;;;;;;-2.91;59.06;96586.56;5033563;28;20265;-79
2024/01/22 02:15:43;;;;;;;27.63;19.53;;;;;;;-2.98;59.59;96582.41;5024929;28;20221;-77
2024/01/22 02:18:08;;;;;;;28.13;19.50;;;;;;;-2.91;59.30;96578.00;5029550;28;20226;-78
2024/01/22 02:20:34;;;;;;;26.60;19.67;;;;;;;-2.98;59.87;96579.00;5021981;28;20194;-77
2024/01/22 02:23:08;;;;;;;26.70;19.80;;;;;;;-2.93;59.36;96577.19;5028080;28;20238;-77
2024/01/22 02:25:34;;;;;;;28.27;19.73;;;;;;;-3.08;59.63;96577.47;5023141;28;20221;-77
2024/01/22 02:27:59;;;;;;;26.73;19.73;;;;;;;-3.05;59.39;96572.28;5030885;28;20218;-77
2024/01/22 02:30:25;;;;;;;26.50;20.13;;;;;;;-3.08;59.55;96574.91;5026839;28;20226;-77
2024/01/22 02:32:51;;;;;;;27.23;20.47;;;;;;;-3.08;59.57;96577.47;5031980;28;20214;-78
2024/01/22 02:35:17;;;;;;;28.43;20.63;;;;;;;-3.19;59.97;96565.69;5034396;28;20186;-78
2024/01/22 02:37:43;;;;;;;31.37;20.87;;;;;;;-3.38;59.73;96575.47;5031160;28;20260;-77
2024/01/22 02:40:09;;;;;;;27.83;20.77;;;;;;;-3.49;60.19;96568.84;5029857;28;20679;-78
2024/01/22 02:42:34;;;;;;;28.63;19.90;;;;;;;-3.32;60.27;96561.66;5030228;28;20242;-80
2024/01/22 02:45:00;;;;;;;26.93;20.83;;;;;;;-3.10;59.35;96567.25;5026524;28;20189;-79
2024/01/22 02:47:26;;;;;;;26.53;20.17;;;;;;;-3.30;60.06;96564.22;5030034;28;20182;-78
2024/01/22 02:49:52;;;;;;;26.97;20.13;;;;;;;-3.22;59.69;96563.16;5025314;28;20301;-79
2024/01/22 02:52:17;;;;;;;32.30;22.17;;;;;;;-3.15;59.60;96569.91;5031633;28;20230;-77
2024/01/22 02:54:43;;;;;;;27.43;20.33;;;;;;;-3.25;59.83;96562.41;5028336;28;20222;-77
2024/01/22 02:57:10;;;;;;;27.40;20.60;;;;;;;-3.22;59.24;96570.88;5032400;28;20229;-78
2024/01/22 02:59:36;;;;;;;28.57;20.93;;;;;;;-3.11;58.99;96566.38;5025224;28;20240;-78
2024/01/22 03:02:03;;;;;;;26.97;20.00;;;;;;;-3.36;59.39;96571.16;5027951;28;20218;-78
2024/01/22 03:04:29;;;;;;;27.77;19.77;;;;;;;-3.37;59.52;96554.03;5032267;28;20225;-78
2024/01/22 03:06:55;;;;;;;25.40;19.07;;;;;;;-3.33;58.94;96559.97;5027878;28;20720;-78
2024/01/22 03:09:20;;;;;;;22.50;18.30;;;;;;;-3.39;59.27;96557.53;5030765;28;20256;-81
2024/01/22 03:11:46;;;;;;;25.63;19.33;;;;;;;-3.44;59.93;96567.88;5020957;28;20243;-78
2024/01/22 03:14:11;;;;;;;28.67;19.67;;;;;;;-3.55;60.57;96550.09;5031421;28;20210;-78
2024/01/22 03:16:37;;;;;;;28.27;19.80;;;;;;;-3.42;60.67;96568.72;5026796;28;20234;-78
2024/01/22 03:19:03;;;;;;;28.73;20.37;;;;;;;-3.41;60.58;96565.25;5028418;28;20230;-80
2024/01/22 03:21:28;;;;;;;27.07;20.13;;;;;;;-3.24;60.21;96575.22;5029872;28;20219;-79
2024/01/22 03:23:54;;;;;;;31.10;19.50;;;;;;;-3.29;59.05;96574.44;5022726;28;20199;-80
2024/01/22 03:26:23;;;;;;;26.03;19.07;;;;;;;-3.56;59.27;96563.81;5028066;28;20240;-80
2024/01/22 03:28:49;;;;;;;24.07;18.37;;;;;;;-3.36;58.97;96576.31;5031459;28;20211;-79
2024/01/22 03:31:27;;;;;;;22.93;18.00;;;;;;;-3.65;59.70;96569.13;5023779;28;20219;-80
2024/01/22 03:33:54;;;;;;;25.87;17.73;;;;;;;-3.60;60.15;96577.63;5031858;28;20305;-80
2024/01/22 03:36:20;;;;;;;26.40;19.27;;;;;;;-3.73;60.93;96585.56;5030587;28;20232;-81
2024/01/22 03:38:46;;;;;;;23.40;18.50;;;;;;;-3.61;60.80;96581.06;5026195;28;20194;-81
2024/01/22 03:41:12;;;;;;;28.23;18.20;;;;;;;-3.70;60.96;96591.50;5025516;28;20179;-81
2024/01/22 03:43:38;;;;;;;25.87;19.73;;;;;;;-4.02;61.25;96577.47;5026574;28;20226;-81
2024/01/22 03:46:04;;;;;;;28.73;20.27;;;;;;;-3.80;61.23;96589.97;5029888;28;20230;-79
2024/01/22 03:48:29;;;;;;;26.27;19.93;;;;;;;-3.67;61.21;96585.47;5035262;28;20575;-80
2024/01/22 03:50:55;;;;;;;26.13;19.30;;;;;;;-3.81;61.89;96581.41;5030296;28;20202;-80
2024/01/22 03:53:21;;;;;;;29.43;20.30;;;;;;;-3.80;62.31;96593.38;5028740;28;20181;-81
2024/01/22 03:55:47;;;;;;;29.10;20.53;;;;;;;-3.87;61.88;96575.53;5034978;28;20221;-80
2024/01/22 03:58:12;;;;;;;29.03;20.30;;;;;;;-3.72;62.05;96589.84;5034672;28;20242;-80
2024/01/22 04:00:38;;;;;;;28.30;20.80;;;;;;;-3.70;61.88;96581.22;5028473;28;20233;-79
2024/01/22 04:03:04;;;;;;;27.97;20.10;;;;;;;-3.56;61.67;96592.09;5025309;28;20278;-80
2024/01/22 04:05:31;;;;;;;26.60;19.60;;;;;;;-3.67;61.33;96568.31;5033120;28;20182;-79
2024/01/22 04:07:56;;;;;;;28.07;19.73;;;;;;;-3.64;61.27;96590.53;5025439;28;20282;-80
2024/01/22 04:10:23;;;;;;;30.87;20.73;;;;;;;-3.80;61.37;96570.25;5030962;28;20241;-79
2024/01/22 04:12:48;;;;;;;29.17;19.50;;;;;;;-3.77;61.89;96588.22;5029711;28;20218;-80
2024/01/22 04:15:14;;;;;;;27.17;19.60;;;;;;;-3.93;62.37;96584.22;5026320;28;20234;-79
2024/01/22 04:17:39;;;;;;;28.37;20.37;;;;;;;-3.98;62.16;96562.88;5027728;28;20186;-80
2024/01/22 04:20:06;;;;;;;30.10;21.63;;;;;;;-3.89;62.52;96574.72;5033159;28;20245;-80
2024/01/22 04:22:32;;;;;;;29.20;19.60;;;;;;;-3.74;61.46;96583.84;5036426;28;20226;-80
2024/01/22 04:24:58;;;;;;;27.37;20.23;;;;;;;-3.72;61.83;96595.81;5034208;28;20223;-80
2024/01/22 04:27:23;;;;;;;28.17;21.27;;;;;;;-3.62;61.64;96588.81;5028855;28;20230;-80
2024/01/22 04:29:49;;;;;;;28.73;20.17;;;;;;;-3.88;61.69;96571.25;5032298;28;20192;-80
2024/01/22 04:32:14;;;;;;;30.30;20.60;;;;;;;-3.89;62.16;96585.00;5036794;28;20214;-79
2024/01/22 04:34:41;;;;;;;26.43;17.70;;;;;;;-3.65;60.36;96578.56;5027794;28;20218;-79
2024/01/22 04:37:07;;;;;;;24.00;17.70;;;;;;;-3.73;60.63;96586.41;5027884;28;20218;-80
2024/01/22 04:39:34;;;;;;;21.93;16.47;;;;;;;-3.80;60.74;96580.53;5028102;28;20321;-81
2024/01/22 04:41:59;;;;;;;20.53;15.27;;;;;;;-3.84;59.77;96583.19;5029967;28;20178;-79
2024/01/22 04:44:28;;;;;;;19.20;14.17;;;;;;;-3.91;59.12;96576.44;5026490;28;20702;-80
2024/01/22 04:46:57;;;;;;;21.10;14.63;;;;;;;-3.89;58.62;96590.13;5032628;28;20226;-80
2024/01/22 04:49:22;;;;;;;20.83;14.60;;;;;;;-3.84;58.65;96588.34;5037345;28;20214;-83
2024/01/22 04:51:48;;;;;;;19.43;14.20;;;;;;;-3.70;57.92;96593.22;5027067;28;20218;-80
2024/01/22 04:54:13;;;;;;;19.23;14.27;;;;;;;-3.91;57.82;96591.88;5026960;28;20221;-81
2024/01/22 04:56:45;;;;;;;20.30;14.47;;;;;;;-3.91;58.04;96584.16;5027416;28;20277;-80
2024/01/22 04:59:10;;;;;;;24.83;17.80;;;;;;;-3.99;59.40;96584.28;5028074;28;20238;-81
2024/01/22 05:01:36;;;;;;;25.83;18.20;;;;;;;-4.05;60.02;96595.50;5026044;28;20222;-77
2024/01/22 05:04:03;;;;;;;28.80;18.33;;;;;;;-4.13;60.01;96599.09;5030422;28;20222;-79
2024/01/22 05:06:28;;;;;;;27.07;18.33;;;;;;;-4.09;60.37;96599.03;5024944;28;20294;-79
2024/01/22 05:08:54;;;;;;;27.30;18.67;;;;;;;-4.25;60.33;96600.09;5025928;28;20178;-78
2024/01/22 05:11:19;;;;;;;23.83;17.03;;;;;;;-4.17;60.84;96603.44;5025889;28;20191;-78
2024/01/22 05:13:52;;;;;;;24.80;16.63;;;;;;;-4.23;60.04;96586.38;5026391;28;20315;-78
2024/01/22 05:16:21;;;;;;;21.80;15.27;;;;;;;-4.19;60.09;96589.75;5025211;28;20215;-78
2024/01/22 05:18:47;;;;;;;22.33;16.37;;;;;;;-4.13;59.16;96609.38;5027635;28;20254;-80
2024/01/22 05:21:13;;;;;;;20.30;15.90;;;;;;;-4.04;59.48;96594.63;5024423;28;20288;-78
2024/01/22 05:23:40;;;;;;;25.03;18.23;;;;;;;-4.22;59.94;96605.22;5034773;28;20190;-76
2024/01/22 05:26:06;;;;;;;25.10;17.33;;;;;;;-4.22;60.16;96597.53;5028449;28;20286;-78
2024/01/22 05:28:32;;;;;;;25.80;18.10;;;;;;;-4.32;60.11;96593.38;5036517;28;20227;-77
2024/01/22 05:30:57;;;;;;;26.73;19.07;;;;;;;-4.12;60.00;96608.47;5029407;28;20321;-77
2024/01/22 05:33:23;;;;;;;23.87;17.97;;;;;;;-4.23;60.59;96598.38;5032360;28;20229;-78
2024/01/22 05:35:48;;;;;;;24.40;17.80;;;;;;;-4.30;60.61;96596.78;5039553;28;20237;-79
2024/01/22 05:38:14;;;;;;;25.07;18.00;;;;;;;-4.62;61.31;96584.41;5032801;28;20214;-78
2024/01/22 05:40:40;;;;;;;26.03;18.57;;;;;;;-4.40;61.63;96603.78;5027947;28;20266;-77
2024/01/22 05:43:06;;;;;;;26.03;18.40;;;;;;;-4.33;61.17;96599.38;5035643;28;20230;-79
2024/01/22 05:45:31;;;;;;;23.77;17.67;;;;;;;-4.55;60.63;96593.72;5036302;28;20230;-78
2024/01/22 05:47:57;;;;;;;24.10;18.27;;;;;;;-4.34;60.78;96598.53;5031083;28;20186;-80
2024/01/22 05:50:23;;;;;;;25.00;18.20;;;;;;;-4.36;60.53;96589.16;5035934;28;20182;-79
2024/01/22 05:52:49;;;;;;;28.07;19.03;;;;;;;-4.50;60.97;96574.81;5031496;28;20226;-78
2024/01/22 05:55:14;;;;;;;23.93;18.30;;;;;;;-4.22;60.42;96598.38;5032815;28;20253;-77
2024/01/22 05:57:40;;;;;;;27.50;20.03;;;;;;;-4.20;59.90;96590.63;5026699;28;20306;-78
2024/01/22 06:00:09;;;;;;;26.03;18.57;;;;;;;-4.10;60.31;96599.88;5032406;28;20234;-79
2024/01/22 06:02:42;;;;;;;26.13;18.43;;;;;;;-4.13;59.82;96601.66;5028196;28;20288;-78
2024/01/22 06:05:09;;;;;;;28.17;19.97;;;;;;;-4.23;60.20;96612.06;5039476;28;20226;-80
2024/01/22 06:07:36;;;;;;;25.10;18.53;;;;;;;-4.21;59.54;96609.47;5007775;28;20215;-80
2024/01/22 06:10:02;;;;;;;23.50;16.07;;;;;;;-4.32;59.61;96616.50;5025458;28;20227;-78
2024/01/22 06:12:28;;;;;;;23.10;16.67;;;;;;;-4.19;59.23;96618.00;5019510;28;20234;-80
2024/01/22 06:14:53;;;;;;;22.37;15.87;;;;;;;-4.34;60.02;96623.38;5026246;28;20253;-79
2024/01/22 06:17:19;;;;;;;23.23;16.40;;;;;;;-4.28;59.51;96618.13;5030670;28;20216;-78
2024/01/22 06:19:44;;;;;;;23.87;17.10;;;;;;;-4.36;60.64;96622.53;5030413;28;20232;-79
2024/01/22 06:22:12;;;;;;;25.70;17.63;;;;;;;-4.22;60.00;96618.91;5029919;28;20226;-76
2024/01/22 06:24:38;;;;;;;28.40;17.90;;;;;;;-4.43;60.67;96617.50;5028818;28;20277;-77
2024/01/22 06:27:03;;;;;;;22.30;15.53;;;;;;;-4.19;60.09;96620.59;5024040;28;20209;-76
2024/01/22 06:29:29;;;;;;;21.87;16.20;;;;;;;-4.19;60.26;96623.16;5033474;28;20186;-79
2024/01/22 06:31:54;;;;;;;22.87;15.17;;;;;;;-4.04;60.15;96627.19;5029893;28;20227;-74
2024/01/22 06:34:20;;;;;;;26.30;17.33;;;;;;;-4.06;60.21;96634.94;5032272;28;20227;-76
2024/01/22 06:36:46;;;;;;;27.63;17.00;;;;;;;-4.11;60.48;96635.88;5026497;28;20305;-75
2024/01/22 06:39:11;;;;;;;25.57;16.70;;;;;;;-4.35;60.40;96630.25;5026131;28;20231;-75
2024/01/22 06:41:37;;;;;;;26.37;18.27;;;;;;;-4.47;60.55;96627.84;5025566;28;20225;-76
2024/01/22 06:44:03;;;;;;;25.17;17.73;;;;;;;-4.27;60.94;96627.56;5033554;28;20290;-78
2024/01/22 06:46:29;;;;;;;26.83;18.07;;;;;;;-4.10;59.89;96623.00;5029050;28;20229;-76
2024/01/22 06:48:54;;;;;;;26.17;16.77;;;;;;;-4.28;60.14;96615.56;5023370;28;20417;-75
2024/01/22 06:51:20;;;;;;;24.70;15.97;;;;;;;-4.25;60.10;96618.97;5033440;28;20217;-73
2024/01/22 06:53:45;;;;;;;23.03;14.80;;;;;;;-4.11;60.56;96629.03;5020195;28;20241;-73
2024/01/22 06:56:11;;;;;;;22.90;15.27;;;;;;;-4.00;59.40;96622.00;5019854;28;20190;-71
2024/01/22 06:58:36;;;;;;;23.40;15.73;;;;;;;-3.91;58.74;96615.84;5025879;28;20281;-75
2024/01/22 07:01:05;;;;;;;21.60;14.93;;;;;;;-3.93;58.19;96639.88;5019379;28;20226;-77
2024/01/22 07:03:31;;;;;;;22.93;16.23;;;;;;;-4.23;58.36;96631.75;5028990;28;20238;-76
2024/01/22 07:05:56;;;;;;;24.63;16.23;;;;;;;-4.35;58.69;96622.53;5023341;28;20195;-77
2024/01/22 07:08:22;;;;;;;23.73;16.33;;;;;;;-4.12;59.28;96653.00;5028358;28;20237;-79
2024/01/22 07:10:48;;;;;;;24.47;16.97;;;;;;;-4.29;58.36;96650.69;5023669;28;20222;-76
2024/01/22 07:13:14;;;;;;;24.13;16.90;;;;;;;-4.27;59.11;96640.41;5032178;28;20226;-76
2024/01/22 07:15:40;;;;;;;26.30;18.23;;;;;;;-4.13;59.03;96651.31;5027440;28;20317;-71
2024/01/22 07:18:07;;;;;;;23.33;16.67;;;;;;;-4.16;58.66;96642.81;5028492;28;20230;-76
2024/01/22 07:20:33;;;;;;;26.13;17.70;;;;;;;-4.19;58.56;96648.00;5023580;28;20237;-77
2024/01/22 07:22:59;;;;;;;24.00;16.67;;;;;;;-4.21;58.35;96630.88;5030032;28;20261;-75
2024/01/22 07:25:25;;;;;;;22.20;15.83;;;;;;;-4.24;58.50;96638.63;5034238;28;20225;-77
2024/01/22 07:27:51;;;;;;;19.20;14.03;;;;;;;-4.13;57.98;96633.31;5027198;28;20284;-78
2024/01/22 07:30:16;;;;;;;23.57;15.73;;;;;;;-4.03;57.74;96634.88;5030879;28;20280;-75
2024/01/22 07:32:43;;;;;;;25.63;17.40;;;;;;;-3.83;57.50;96647.41;5028955;28;20186;-79
2024/01/22 07:35:11;;;;;;;28.27;19.27;;;;;;;-3.78;57.91;96648.19;5034293;28;20218;-74
2024/01/22 07:37:42;;;;;;;28.23;19.67;;;;;;;-3.81;57.91;96637.94;5027939;28;20272;-76
2024/01/22 07:40:11;;;;;;;27.57;18.10;;;;;;;-3.81;58.07;96634.53;5030001;28;20222;-79
2024/01/22 07:42:38;;;;;;;23.90;17.97;;;;;;;-3.59;57.52;96625.56;5029381;28;20348;-79
2024/01/22 07:45:07;;;;;;;21.97;15.00;;;;;;;-3.45;56.81;96627.91;5024060;28;20236;-76
2024/01/22 07:47:34;;;;;;;23.33;16.20;;;;;;;-3.45;56.73;96616.78;5011942;28;20190;-76
2024/01/22 07:49:59;;;;;;;21.90;15.60;;;;;;;-3.49;56.61;96626.28;5023510;28;20226;-73
2024/01/22 07:52:25;;;;;;;24.30;15.67;;;;;;;-3.51;56.57;96625.44;5027666;28;20222;-75
2024/01/22 07:54:51;;;;;;;22.77;15.47;;;;;;;-3.57;56.79;96618.69;5023768;28;20250;-76
2024/01/22 07:57:16;;;;;;;24.77;17.50;;;;;;;-3.52;56.96;96616.03;5026566;28;20326;-74
2024/01/22 07:59:43;;;;;;;26.27;17.77;;;;;;;-3.43;56.79;96602.16;5026460;28;20670;-75
2024/01/22 08:02:09;;;;;;;23.77;16.67;;;;;;;-3.63;57.44;96615.41;5020278;28;20222;-77
2024/01/22 08:04:35;;;;;;;25.40;17.80;;;;;;;-3.52;57.82;96617.78;5027542;28;20267;-75
2024/01/22 08:07:03;;;;;;;25.80;16.03;;;;;;;-3.62;57.77;96615.34;5021203;28;20234;-77
2024/01/22 08:09:29;;;;;;;31.70;21.20;;;;;;;-3.47;57.56;96613.41;5022891;28;20218;-76
2024/01/22 08:11:54;;;;;;;31.23;19.07;;;;;;;-3.61;57.67;96605.91;5027264;28;20190;-75
2024/01/22 08:14:20;;;;;;;33.43;20.30;;;;;;;-3.38;57.37;96603.78;5026977;28;20232;-76
2024/01/22 08:16:46;;;;;;;35.37;20.60;;;;;;;-3.45;58.02;96589.31;5026091;28;20280;-76
2024/01/22 08:19:11;;;;;;;30.10;17.57;;;;;;;-3.38;57.69;96598.63;5022740;28;20222;-73
2024/01/22 08:21:37;;;;;;;31.73;20.53;;;;;;;-4.16;59.52;96604.28;5025152;28;20252;-77
2024/01/22 08:24:02;;;;;;;29.67;18.07;;;;;;;-3.72;59.51;96588.09;5027406;28;20183;-80
2024/01/22 08:26:28;;;;;;;34.20;23.13;;;;;;;-3.32;58.49;96577.09;5029006;28;20182;-80
2024/01/22 08:28:53;;;;;;;33.30;22.23;;;;;;;-3.21;58.05;96569.16;5031902;28;20225;-76
2024/01/22 08:31:19;;;;;;;32.57;20.93;;;;;;;-2.94;57.40;96573.75;5029307;28;20225;-74
2024/01/22 08:33:44;;;;;;;33.03;19.03;;;;;;;-2.59;56.98;96573.84;5027697;28;20217;-72
2024/01/22 08:36:10;;;;;;;32.63;18.90;;;;;;;-2.77;56.06;96575.13;5028523;28;20237;-80
2024/01/22 08:38:36;;;;;;;26.67;16.47;;;;;;;-2.65;56.23;96580.00;5025626;28;20202;-77
2024/01/22 08:41:03;;;;;;;27.13;16.50;;;;;;;-2.18;55.46;96593.53;5024436;28;20240;-75
2024/01/22 08:43:29;;;;;;;31.10;18.80;;;;;;;-2.31;55.76;96598.13;5020087;28;20222;-74
2024/01/22 08:45:54;;;;;;;34.57;18.80;;;;;;;-2.11;56.01;96602.81;5017743;28;20223;-75
2024/01/22 08:48:20;;;;;;;39.93;21.10;;;;;;;-2.06;57.16;96600.13;5030124;28;20273;-76
2024/01/22 08:50:45;;;;;;;38.27;22.20;;;;;;;-2.31;58.51;96585.25;5029013;28;20245;-73
2024/01/22 08:53:11;;;;;;;41.17;22.77;;;;;;;-2.16;58.48;96588.34;5022681;28;20217;-74
2024/01/22 08:55:36;;;;;;;44.53;24.10;;;;;;;-2.34;57.79;96581.91;5024835;28;20226;-74
2024/01/22 08:58:02;;;;;;;49.17;26.57;;;;;;;-2.42;57.90;96578.66;5022302;28;20226;-74
2024/01/22 09:00:27;;;;;;;43.30;23.80;;;;;;;-2.32;58.52;96587.88;5027550;28;20227;-75
2024/01/22 09:02:53;;;;;;;44.90;26.07;;;;;;;-2.21;58.03;96593.63;5027783;28;20186;-74
2024/01/22 09:05:18;;;;;;;47.23;24.93;;;;;;;-2.31;58.85;96595.53;5024395;28;20194;-73
2024/01/22 09:07:45;;;;;;;47.10;27.37;;;;;;;-2.34;59.13;96595.63;5027466;28;20309;-74
2024/01/22 09:10:11;;;;;;;48.57;26.47;;;;;;;-2.12;58.68;96600.28;5030159;28;20281;-74
2024/01/22 09:12:37;;;;;;;44.03;25.43;;;;;;;-2.09;58.81;96589.88;5027318;28;20314;-77
2024/01/22 09:15:04;;;;;;;44.33;26.17;;;;;;;-2.28;57.96;96590.31;5030852;28;20187;-80
2024/01/22 09:17:30;;;;;;;40.57;24.70;;;;;;;-2.16;58.11;96596.94;5028613;28;20183;-74
2024/01/22 09:19:56;;;;;;;50.83;26.73;;;;;;;-2.10;59.18;96589.03;5026114;28;20261;-77
2024/01/22 09:22:22;;;;;;;53.43;27.63;;;;;;;-2.03;59.02;96579.44;5024267;28;20234;-75
2024/01/22 09:24:47;;;;;;;47.87;25.80;;;;;;;-1.95;58.76;96577.53;5029401;28;20261;-74
2024/01/22 09:27:13;;;;;;;47.03;26.93;;;;;;;-1.92;57.98;96569.72;5026998;28;20219;-73
2024/01/22 09:29:41;;;;;;;50.77;30.00;;;;;;;-2.01;58.54;96573.34;5027141;28;20178;-78
2024/01/22 09:32:08;;;;;;;48.20;29.10;;;;;;;-1.81;58.00;96566.88;5019878;28;20237;-74
2024/01/22 09:34:33;;;;;;;54.50;29.17;;;;;;;-1.80;58.12;96581.44;5026772;28;20281;-70
2024/01/22 09:36:59;;;;;;;53.37;29.57;;;;;;;-1.80;57.71;96571.97;5019307;28;20226;-73
2024/01/22 09:39:24;;;;;;;48.00;26.97;;;;;;;-1.37;55.21;96573.44;5023784;28;20226;-75
2024/01/22 09:41:51;;;;;;;53.47;29.27;;;;;;;-1.99;58.10;96583.63;5021109;28;20276;-75
2024/01/22 09:44:17;;;;;;;53.30;28.43;;;;;;;-2.02;58.61;96576.81;5029959;28;20269;-74
2024/01/22 09:46:45;;;;;;;47.63;27.10;;;;;;;-1.99;58.25;96575.91;5019295;28;20218;-74
2024/01/22 09:49:10;;;;;;;46.33;26.23;;;;;;;-1.93;58.02;96572.31;5026443;28;20223;-75
2024/01/22 09:51:41;;;;;;;50.60;28.73;;;;;;;-1.64;57.67;96569.00;5028001;28;20270;-75
2024/01/22 09:54:09;;;;;;;46.83;28.30;;;;;;;-1.65;57.81;96567.31;5022410;28;20218;-74
2024/01/22 09:56:36;;;;;;;49.00;27.47;;;;;;;-1.75;58.53;96564.13;5014685;28;20213;-73
2024/01/22 09:59:17;;;;;;;50.40;27.47;;;;;;;-1.32;56.67;96568.16;5023253;28;20230;-74
2024/01/22 10:01:43;;;;;;;47.77;27.53;;;;;;;-1.74;56.60;96557.22;5029763;28;20218;-73
2024/01/22 10:04:11;;;;;;;52.63;29.23;;;;;;;-2.06;58.47;96566.59;5022628;28;20209;-74
2024/01/22 10:06:39;;;;;;;52.93;29.43;;;;;;;-1.73;57.94;96552.03;5026520;28;20225;-73
2024/01/22 10:09:05;;;;;;;50.10;29.60;;;;;;;-1.49;57.39;96555.72;5027776;28;20210;-74
2024/01/22 10:11:31;;;;;;;47.07;28.23;;;;;;;-1.28;56.72;96546.53;5026614;28;20325;-72
2024/01/22 10:13:57;;;;;;;55.10;30.10;;;;;;;-1.29;57.36;96537.09;5037790;28;20214;-74
2024/01/22 10:16:26;;;;;;;53.87;30.83;;;;;;;-1.21;57.54;96539.47;5024497;28;20194;-73
2024/01/22 10:18:59;;;;;;;51.63;31.37;;;;;;;-1.10;57.36;96529.69;5027057;28;20206;-75
2024/01/22 10:21:26;;;;;;;53.87;31.43;;;;;;;-1.00;56.86;96528.53;5031542;28;20222;-77
2024/01/22 10:24:08;;;;;;;58.17;32.83;;;;;;;-0.99;57.61;96530.22;5024872;28;20235;-75
2024/01/22 10:26:34;;;;;;;51.13;31.23;;;;;;;-1.11;57.68;96522.84;5027530;28;20223;-76
2024/01/22 10:29:17;;;;;;;50.90;29.73;;;;;;;-0.44;56.98;96530.28;5024465;28;20227;-78
2024/01/22 10:32:09;;;;;;;53.87;31.73;;;;;;;-0.34;56.81;96521.38;5019990;28;20302;-81
2024/01/22 10:34:51;;;;;;;51.53;31.97;;;;;;;-0.42;55.82;96514.75;5019549;28;20258;-71
2024/01/22 10:37:17;;;;;;;56.30;32.53;;;;;;;-0.32;54.75;96523.88;5027535;28;20190;-71
2024/01/22 10:39:44;;;;;;;52.83;32.30;;;;;;;-0.63;55.59;96517.09;5026866;28;20213;-70
2024/01/22 10:42:11;;;;;;;55.13;31.60;;;;;;;-0.77;56.14;96509.78;5029196;28;20253;-70
2024/01/22 10:44:38;;;;;;;55.93;33.03;;;;;;;-0.38;53.96;96506.00;5027843;28;20320;-69
2024/01/22 10:47:04;;;;;;;57.53;34.73;;;;;;;-0.52;55.39;96509.00;5026487;28;20219;-71
2024/01/22 10:49:31;;;;;;;55.77;34.23;;;;;;;-0.52;56.61;96504.69;5028839;28;20248;-70
2024/01/22 10:52:01;;;;;;;60.87;37.90;;;;;;;-0.48;57.14;96495.97;5029814;28;20193;-70
2024/01/22 10:54:27;;;;;;;61.53;36.00;;;;;;;-0.32;56.88;96487.69;5023234;28;20222;-70
2024/01/22 10:57:08;;;;;;;62.60;38.50;;;;;;;-0.17;56.61;96488.94;5024154;28;20227;-72
2024/01/22 10:59:38;;;;;;;62.43;37.33;;;;;;;-0.11;55.51;96481.81;5025861;28;20329;-76
2024/01/22 11:02:15;;;;;;;60.20;38.63;;;;;;;0.17;55.28;96480.91;5032200;28;20230;-76
2024/01/22 11:04:45;;;;;;;65.73;40.03;;;;;;;0.35;55.13;96480.28;5030510;28;20229;-69
2024/01/22 11:07:11;;;;;;;63.57;39.07;;;;;;;0.43;54.57;96483.44;5028807;28;20179;-73
2024/01/22 11:09:38;;;;;;;60.27;39.57;;;;;;;0.42;53.87;96475.72;5028123;28;20302;-70
2024/01/22 11:12:14;;;;;;;61.43;38.40;;;;;;;0.56;54.39;96475.22;5020602;28;20229;-71
2024/01/22 11:14:41;;;;;;;56.37;36.43;;;;;;;0.41;55.27;96477.47;5027075;28;20268;-70